Airfield :
LOGIN :

Register | Disclaimer

   EN    FR    IT 

 










Legend :    VFR   Marginal VFR   IFR   Intensive IFR   Very Intensive IFR
Visi :
Ceiling :
>= 8 km
>= 3000ft
5 to 8 km
1000 to 3000 ft
1500m to 5 km
500 to 1000 ft
800 to 1500m
200 to 500 ft
< 800m
< 200 ft
Symbols :   Thunderstorms  Fog  Heavy snow  Heavy precipitations  Wind > 20 kt
SIGMETs :     Misc.  Thunderstorms  Icing  Turbulence  Mountain Waves  Volcanic Ashes






- Airport Elevation : 529 ft
- IATA code : CHR


LFLX - Chateauroux

CURRENT METAR :
  • 151330Z AUTO 22016G26KT 9999 SCT034 BKN140 BKN170 27/20 Q1009 TEMPO SHRA SCT060TCU

EXPIRED METARs :
  • 151300Z AUTO 23013KT CAVOK 25/19 Q1009 TEMPO 24015G30KT 4000 -TSRA SCT060TCU
  • 151230Z AUTO 24020KT 9999 SCT038 BKN140 BKN220 26/19 Q1009 TEMPO 24015G30KT 4000 -TSRA SCT060TCU
  • 151200Z AUTO 23017KT 9999 FEW042 SCT120 BKN150 27/20 Q1008 TEMPO 25017G33KT 4000 -TSRA SCT060CB
  • 151130Z AUTO 22015KT 190V250 9999 FEW043 BKN120 BKN190 27/19 Q1008 TEMPO 22015G35KT 4000 -TSRA SCT060CB
  • 151100Z AUTO 22010KT CAVOK 28/20 Q1008 TEMPO 22015G35KT 4000 -TSRA SCT060CB
  • 151030Z AUTO 20010KT CAVOK 27/19 Q1008 TEMPO 22015G35KT 4000 -TSRA SCT060CB
  • 151000Z AUTO 19005KT 160V230 CAVOK 27/19 Q1007 TEMPO 22015G35KT 4000 -TSRA SCT060CB
  • 150930Z AUTO VRB02KT CAVOK 27/19 Q1008 TEMPO 22015G35KT 4000 -TSRA SCT060CB
  • 150900Z AUTO 09005KT CAVOK 25/18 Q1008 TEMPO 22015G35KT 4000 -TSRA SCT060CB

TAF TAF LFLX
Valid from the 15 at 12:00 until the 16 at 18:00 UTC


151100Z 1512/1618 23010G20KT CAVOK
PROB40
TEMPO 1512/1515 SHRA SCT060TCU
PROB40
TEMPO 1512/1514 25017G33KT 4000 -TSRA SCT060CB
PROB30
TEMPO 1514/1518 24015G30KT
BECMG 1518/1521 23010KT SCT040
PROB40
TEMPO 1603/1608 -SHRA BKN020



MET'MAP, your aeronautical weather chart ! - Copyright ORBIFLY December 2007 - Disclaimer

ORBIFLY MET'MAP TEAM :

Programming & Development : Alexandra Zaïnal
Original concept : Baudouin d'Aumeries
Technical & hardware support : Manuel Goepfert
Assistance : Marc-Olivier Méhu




SOURCES & CREDITS :

   NOAA